sensor_id;sensor_type;location;lat;lon;timestamp;temperature;humidity
47114;DHT22;32867;51.556;6.832;2023-10-31T00:03:53;12.30;99.90
47114;DHT22;32867;51.556;6.832;2023-10-31T00:08:54;12.00;99.90
47114;DHT22;32867;51.556;6.832;2023-10-31T00:13:55;11.60;99.90
47114;DHT22;32867;51.556;6.832;2023-10-31T00:18:56;11.30;99.90
47114;DHT22;32867;51.556;6.832;2023-10-31T00:23:57;11.10;99.90
47114;DHT22;32867;51.556;6.832;2023-10-31T00:28:58;11.00;99.90
47114;DHT22;32867;51.556;6.832;2023-10-31T00:33:58;10.90;99.90
47114;DHT22;32867;51.556;6.832;2023-10-31T00:38:59;10.80;99.90
47114;DHT22;32867;51.556;6.832;2023-10-31T00:44:00;10.80;99.90
47114;DHT22;32867;51.556;6.832;2023-10-31T00:49:03;10.80;99.90
47114;DHT22;32867;51.556;6.832;2023-10-31T00:54:04;10.70;99.90
47114;DHT22;32867;51.556;6.832;2023-10-31T00:59:05;10.70;99.90
47114;DHT22;32867;51.556;6.832;2023-10-31T01:04:06;10.60;99.90
47114;DHT22;32867;51.556;6.832;2023-10-31T01:09:07;10.60;99.90
47114;DHT22;32867;51.556;6.832;2023-10-31T01:14:07;10.50;99.90
47114;DHT22;32867;51.556;6.832;2023-10-31T01:19:09;10.40;99.90
47114;DHT22;32867;51.556;6.832;2023-10-31T01:24:10;10.40;99.90
47114;DHT22;32867;51.556;6.832;2023-10-31T01:29:11;10.40;99.90
47114;DHT22;32867;51.556;6.832;2023-10-31T01:34:11;10.30;99.90
47114;DHT22;32867;51.556;6.832;2023-10-31T01:39:12;10.30;99.90
47114;DHT22;32867;51.556;6.832;2023-10-31T01:44:13;10.40;99.90
47114;DHT22;32867;51.556;6.832;2023-10-31T01:49:14;10.30;99.90
47114;DHT22;32867;51.556;6.832;2023-10-31T01:54:15;10.40;99.90
47114;DHT22;32867;51.556;6.832;2023-10-31T01:59:16;10.40;99.90
47114;DHT22;32867;51.556;6.832;2023-10-31T02:04:16;10.50;99.90
47114;DHT22;32867;51.556;6.832;2023-10-31T02:09:17;10.40;99.90
47114;DHT22;32867;51.556;6.832;2023-10-31T02:14:18;10.40;99.90
47114;DHT22;32867;51.556;6.832;2023-10-31T02:19:20;10.40;99.90
47114;DHT22;32867;51.556;6.832;2023-10-31T02:24:21;10.50;99.90
47114;DHT22;32867;51.556;6.832;2023-10-31T02:29:22;10.50;99.90
47114;DHT22;32867;51.556;6.832;2023-10-31T02:34:23;10.50;99.90
47114;DHT22;32867;51.556;6.832;2023-10-31T02:39:26;10.40;99.90
47114;DHT22;32867;51.556;6.832;2023-10-31T02:44:27;10.30;99.90
47114;DHT22;32867;51.556;6.832;2023-10-31T02:49:28;10.20;99.90
47114;DHT22;32867;51.556;6.832;2023-10-31T02:54:29;10.10;99.90
47114;DHT22;32867;51.556;6.832;2023-10-31T02:59:30;10.10;99.90
47114;DHT22;32867;51.556;6.832;2023-10-31T03:04:31;10.20;99.90
47114;DHT22;32867;51.556;6.832;2023-10-31T03:09:32;10.20;99.90
47114;DHT22;32867;51.556;6.832;2023-10-31T03:14:33;10.30;99.90
47114;DHT22;32867;51.556;6.832;2023-10-31T03:19:34;10.40;99.90
47114;DHT22;32867;51.556;6.832;2023-10-31T03:24:35;10.20;99.90
47114;DHT22;32867;51.556;6.832;2023-10-31T03:29:36;10.40;99.90
47114;DHT22;32867;51.556;6.832;2023-10-31T03:34:37;10.40;99.90
47114;DHT22;32867;51.556;6.832;2023-10-31T03:39:38;10.40;99.90
47114;DHT22;32867;51.556;6.832;2023-10-31T03:44:39;10.60;99.90
47114;DHT22;32867;51.556;6.832;2023-10-31T03:49:41;10.60;99.90
47114;DHT22;32867;51.556;6.832;2023-10-31T03:54:41;10.60;99.90
47114;DHT22;32867;51.556;6.832;2023-10-31T03:59:42;10.60;99.90
47114;DHT22;32867;51.556;6.832;2023-10-31T04:04:43;10.50;99.90
47114;DHT22;32867;51.556;6.832;2023-10-31T04:09:43;10.50;99.90
47114;DHT22;32867;51.556;6.832;2023-10-31T04:14:44;10.50;99.90
47114;DHT22;32867;51.556;6.832;2023-10-31T04:19:45;10.50;99.90
47114;DHT22;32867;51.556;6.832;2023-10-31T04:24:46;10.50;99.90
47114;DHT22;32867;51.556;6.832;2023-10-31T04:29:46;10.50;99.90
47114;DHT22;32867;51.556;6.832;2023-10-31T04:34:47;10.50;99.90
47114;DHT22;32867;51.556;6.832;2023-10-31T04:39:48;10.50;99.90
47114;DHT22;32867;51.556;6.832;2023-10-31T04:44:49;10.50;99.90
47114;DHT22;32867;51.556;6.832;2023-10-31T04:49:49;10.50;99.90
47114;DHT22;32867;51.556;6.832;2023-10-31T04:54:50;10.60;99.90
47114;DHT22;32867;51.556;6.832;2023-10-31T04:59:51;10.50;99.90
47114;DHT22;32867;51.556;6.832;2023-10-31T05:04:54;10.50;99.90
47114;DHT22;32867;51.556;6.832;2023-10-31T05:09:55;10.30;99.90
47114;DHT22;32867;51.556;6.832;2023-10-31T05:14:56;10.30;99.90
47114;DHT22;32867;51.556;6.832;2023-10-31T05:19:57;10.40;99.90
47114;DHT22;32867;51.556;6.832;2023-10-31T05:24:57;10.40;99.90
47114;DHT22;32867;51.556;6.832;2023-10-31T05:29:58;10.50;99.90
47114;DHT22;32867;51.556;6.832;2023-10-31T05:34:59;10.60;99.90
47114;DHT22;32867;51.556;6.832;2023-10-31T05:40:00;10.50;99.90
47114;DHT22;32867;51.556;6.832;2023-10-31T05:45:04;10.50;99.90
47114;DHT22;32867;51.556;6.832;2023-10-31T05:50:06;10.50;99.90
47114;DHT22;32867;51.556;6.832;2023-10-31T05:55:07;10.50;99.90
47114;DHT22;32867;51.556;6.832;2023-10-31T06:00:11;10.60;99.90
47114;DHT22;32867;51.556;6.832;2023-10-31T06:05:15;10.60;99.90
47114;DHT22;32867;51.556;6.832;2023-10-31T06:10:16;10.60;99.90
47114;DHT22;32867;51.556;6.832;2023-10-31T06:15:16;10.60;99.90
47114;DHT22;32867;51.556;6.832;2023-10-31T06:20:17;10.60;99.90
47114;DHT22;32867;51.556;6.832;2023-10-31T06:25:18;10.50;99.90
47114;DHT22;32867;51.556;6.832;2023-10-31T06:30:19;10.60;99.90
47114;DHT22;32867;51.556;6.832;2023-10-31T06:35:24;10.60;99.90
47114;DHT22;32867;51.556;6.832;2023-10-31T06:40:25;10.60;99.90
47114;DHT22;32867;51.556;6.832;2023-10-31T06:45:32;10.60;99.90
47114;DHT22;32867;51.556;6.832;2023-10-31T06:50:32;10.80;99.90
47114;DHT22;32867;51.556;6.832;2023-10-31T06:55:33;10.60;99.90
47114;DHT22;32867;51.556;6.832;2023-10-31T07:00:34;10.60;99.90
47114;DHT22;32867;51.556;6.832;2023-10-31T07:05:35;10.70;99.90
47114;DHT22;32867;51.556;6.832;2023-10-31T07:10:39;10.70;99.90
47114;DHT22;32867;51.556;6.832;2023-10-31T07:15:40;10.80;99.90
47114;DHT22;32867;51.556;6.832;2023-10-31T07:20:41;10.80;99.90
47114;DHT22;32867;51.556;6.832;2023-10-31T07:25:42;10.80;99.90
47114;DHT22;32867;51.556;6.832;2023-10-31T07:30:44;10.70;99.90
47114;DHT22;32867;51.556;6.832;2023-10-31T07:35:47;10.60;99.90
47114;DHT22;32867;51.556;6.832;2023-10-31T07:40:48;10.70;99.90
47114;DHT22;32867;51.556;6.832;2023-10-31T07:45:49;10.70;99.90
47114;DHT22;32867;51.556;6.832;2023-10-31T07:50:49;10.70;99.90
47114;DHT22;32867;51.556;6.832;2023-10-31T07:55:50;10.80;99.90
47114;DHT22;32867;51.556;6.832;2023-10-31T08:00:51;10.90;99.90
47114;DHT22;32867;51.556;6.832;2023-10-31T08:05:52;10.80;99.90
47114;DHT22;32867;51.556;6.832;2023-10-31T08:10:52;10.80;99.90
47114;DHT22;32867;51.556;6.832;2023-10-31T08:15:53;10.80;99.90
47114;DHT22;32867;51.556;6.832;2023-10-31T08:20:54;10.70;99.90
47114;DHT22;32867;51.556;6.832;2023-10-31T08:25:55;10.90;99.90
47114;DHT22;32867;51.556;6.832;2023-10-31T08:30:56;10.80;99.90
47114;DHT22;32867;51.556;6.832;2023-10-31T08:35:57;10.80;99.90
47114;DHT22;32867;51.556;6.832;2023-10-31T08:40:58;10.70;99.90
47114;DHT22;32867;51.556;6.832;2023-10-31T08:45:59;10.80;99.90
47114;DHT22;32867;51.556;6.832;2023-10-31T08:51:00;10.90;99.90
47114;DHT22;32867;51.556;6.832;2023-10-31T08:56:00;11.20;99.90
47114;DHT22;32867;51.556;6.832;2023-10-31T09:01:01;11.00;99.90
47114;DHT22;32867;51.556;6.832;2023-10-31T09:06:03;11.10;99.90
47114;DHT22;32867;51.556;6.832;2023-10-31T09:11:04;11.10;99.90
47114;DHT22;32867;51.556;6.832;2023-10-31T09:16:05;11.20;99.90
47114;DHT22;32867;51.556;6.832;2023-10-31T09:21:06;11.40;99.90
47114;DHT22;32867;51.556;6.832;2023-10-31T09:26:07;11.40;99.90
47114;DHT22;32867;51.556;6.832;2023-10-31T09:31:08;11.50;99.90
47114;DHT22;32867;51.556;6.832;2023-10-31T09:36:09;11.80;99.90
47114;DHT22;32867;51.556;6.832;2023-10-31T09:41:14;11.50;99.90
47114;DHT22;32867;51.556;6.832;2023-10-31T09:46:16;11.40;99.90
47114;DHT22;32867;51.556;6.832;2023-10-31T09:51:17;11.50;99.90
47114;DHT22;32867;51.556;6.832;2023-10-31T09:56:18;11.50;99.90
47114;DHT22;32867;51.556;6.832;2023-10-31T10:01:19;11.50;99.90
47114;DHT22;32867;51.556;6.832;2023-10-31T10:06:21;11.40;99.90
47114;DHT22;32867;51.556;6.832;2023-10-31T10:11:24;11.50;99.90
47114;DHT22;32867;51.556;6.832;2023-10-31T10:16:34;11.50;99.90
47114;DHT22;32867;51.556;6.832;2023-10-31T10:21:46;11.40;99.90
47114;DHT22;32867;51.556;6.832;2023-10-31T10:26:48;11.20;99.90
47114;DHT22;32867;51.556;6.832;2023-10-31T10:31:49;11.40;99.90
47114;DHT22;32867;51.556;6.832;2023-10-31T10:36:50;11.30;99.90
47114;DHT22;32867;51.556;6.832;2023-10-31T10:41:55;11.50;99.90
47114;DHT22;32867;51.556;6.832;2023-10-31T10:46:58;11.40;99.90
47114;DHT22;32867;51.556;6.832;2023-10-31T11:02:48;11.50;99.90
47114;DHT22;32867;51.556;6.832;2023-10-31T11:07:52;11.50;99.90
47114;DHT22;32867;51.556;6.832;2023-10-31T11:12:53;11.40;99.90
47114;DHT22;32867;51.556;6.832;2023-10-31T11:17:57;11.50;99.90
47114;DHT22;32867;51.556;6.832;2023-10-31T11:22:58;11.60;99.90
47114;DHT22;32867;51.556;6.832;2023-10-31T11:28:13;11.60;99.90
47114;DHT22;32867;51.556;6.832;2023-10-31T11:33:15;11.70;99.90
47114;DHT22;32867;51.556;6.832;2023-10-31T11:38:16;11.70;99.90
47114;DHT22;32867;51.556;6.832;2023-10-31T11:48:52;12.00;99.90
47114;DHT22;32867;51.556;6.832;2023-10-31T11:53:55;12.00;99.90
47114;DHT22;32867;51.556;6.832;2023-10-31T11:59:02;12.20;99.90
47114;DHT22;32867;51.556;6.832;2023-10-31T12:04:03;12.10;99.90
47114;DHT22;32867;51.556;6.832;2023-10-31T12:09:04;12.20;99.90
47114;DHT22;32867;51.556;6.832;2023-10-31T12:14:05;12.20;99.90
47114;DHT22;32867;51.556;6.832;2023-10-31T12:19:06;12.10;99.90
47114;DHT22;32867;51.556;6.832;2023-10-31T12:24:11;12.20;99.90
47114;DHT22;32867;51.556;6.832;2023-10-31T12:29:19;12.20;99.90
47114;DHT22;32867;51.556;6.832;2023-10-31T12:34:22;12.20;99.90
47114;DHT22;32867;51.556;6.832;2023-10-31T12:39:25;12.20;99.90
47114;DHT22;32867;51.556;6.832;2023-10-31T12:44:27;12.30;99.90
47114;DHT22;32867;51.556;6.832;2023-10-31T12:49:28;12.50;99.90
47114;DHT22;32867;51.556;6.832;2023-10-31T12:54:30;12.40;99.90
47114;DHT22;32867;51.556;6.832;2023-10-31T12:59:37;12.60;99.90
47114;DHT22;32867;51.556;6.832;2023-10-31T13:04:38;12.60;99.90
47114;DHT22;32867;51.556;6.832;2023-10-31T13:09:51;12.60;99.90
47114;DHT22;32867;51.556;6.832;2023-10-31T13:14:52;12.80;99.90
47114;DHT22;32867;51.556;6.832;2023-10-31T13:19:54;13.30;99.90
47114;DHT22;32867;51.556;6.832;2023-10-31T13:24:55;13.20;99.90
47114;DHT22;32867;51.556;6.832;2023-10-31T13:29:56;13.00;99.90
47114;DHT22;32867;51.556;6.832;2023-10-31T13:34:56;13.20;99.90
47114;DHT22;32867;51.556;6.832;2023-10-31T13:40:01;12.90;99.90
47114;DHT22;32867;51.556;6.832;2023-10-31T13:45:02;13.20;99.90
47114;DHT22;32867;51.556;6.832;2023-10-31T13:50:03;13.80;99.90
47114;DHT22;32867;51.556;6.832;2023-10-31T13:55:05;14.20;99.90
47114;DHT22;32867;51.556;6.832;2023-10-31T14:00:06;14.10;99.90
47114;DHT22;32867;51.556;6.832;2023-10-31T14:05:12;14.20;99.90
47114;DHT22;32867;51.556;6.832;2023-10-31T14:10:13;14.00;99.90
47114;DHT22;32867;51.556;6.832;2023-10-31T14:15:14;14.00;99.90
47114;DHT22;32867;51.556;6.832;2023-10-31T14:20:15;14.10;99.90
47114;DHT22;32867;51.556;6.832;2023-10-31T14:25:16;13.60;99.90
47114;DHT22;32867;51.556;6.832;2023-10-31T14:30:17;13.70;99.90
47114;DHT22;32867;51.556;6.832;2023-10-31T14:35:18;14.20;99.90
47114;DHT22;32867;51.556;6.832;2023-10-31T14:40:19;14.30;99.90
47114;DHT22;32867;51.556;6.832;2023-10-31T14:45:19;14.10;99.90
47114;DHT22;32867;51.556;6.832;2023-10-31T14:50:20;13.90;99.90
47114;DHT22;32867;51.556;6.832;2023-10-31T14:55:21;13.70;99.90
47114;DHT22;32867;51.556;6.832;2023-10-31T15:00:22;13.60;99.90
47114;DHT22;32867;51.556;6.832;2023-10-31T15:05:22;13.80;99.90
47114;DHT22;32867;51.556;6.832;2023-10-31T15:10:24;13.30;99.90
47114;DHT22;32867;51.556;6.832;2023-10-31T15:15:26;13.40;99.90
47114;DHT22;32867;51.556;6.832;2023-10-31T15:20:27;13.10;99.90
47114;DHT22;32867;51.556;6.832;2023-10-31T15:25:28;13.00;99.90
47114;DHT22;32867;51.556;6.832;2023-10-31T15:30:29;12.80;99.90
47114;DHT22;32867;51.556;6.832;2023-10-31T15:35:29;12.70;99.90
47114;DHT22;32867;51.556;6.832;2023-10-31T15:40:33;12.60;99.90
47114;DHT22;32867;51.556;6.832;2023-10-31T15:45:34;12.50;99.90
47114;DHT22;32867;51.556;6.832;2023-10-31T15:50:40;12.50;99.90
47114;DHT22;32867;51.556;6.832;2023-10-31T15:55:43;12.60;99.90
47114;DHT22;32867;51.556;6.832;2023-10-31T16:00:45;12.50;99.90
47114;DHT22;32867;51.556;6.832;2023-10-31T16:05:46;12.50;99.90
47114;DHT22;32867;51.556;6.832;2023-10-31T16:10:46;12.50;99.90
47114;DHT22;32867;51.556;6.832;2023-10-31T16:15:53;12.40;99.90
47114;DHT22;32867;51.556;6.832;2023-10-31T16:20:53;12.50;99.90
47114;DHT22;32867;51.556;6.832;2023-10-31T16:25:54;12.50;99.90
47114;DHT22;32867;51.556;6.832;2023-10-31T16:30:55;12.40;99.90
47114;DHT22;32867;51.556;6.832;2023-10-31T16:35:56;12.40;99.90
47114;DHT22;32867;51.556;6.832;2023-10-31T16:41:00;12.20;99.90
47114;DHT22;32867;51.556;6.832;2023-10-31T16:46:01;12.00;99.90
47114;DHT22;32867;51.556;6.832;2023-10-31T16:51:02;12.00;99.90
47114;DHT22;32867;51.556;6.832;2023-10-31T16:56:04;12.00;99.90
47114;DHT22;32867;51.556;6.832;2023-10-31T17:01:06;11.70;99.90
47114;DHT22;32867;51.556;6.832;2023-10-31T17:06:07;11.80;99.90
47114;DHT22;32867;51.556;6.832;2023-10-31T17:11:09;12.00;99.90
47114;DHT22;32867;51.556;6.832;2023-10-31T17:16:10;11.80;99.90
47114;DHT22;32867;51.556;6.832;2023-10-31T17:21:10;11.60;99.90
47114;DHT22;32867;51.556;6.832;2023-10-31T17:26:11;11.50;99.90
47114;DHT22;32867;51.556;6.832;2023-10-31T17:31:12;11.50;99.90
47114;DHT22;32867;51.556;6.832;2023-10-31T17:36:13;11.30;99.90
47114;DHT22;32867;51.556;6.832;2023-10-31T17:41:14;11.30;99.90
47114;DHT22;32867;51.556;6.832;2023-10-31T17:46:18;11.20;99.90
47114;DHT22;32867;51.556;6.832;2023-10-31T17:51:18;11.20;99.90
47114;DHT22;32867;51.556;6.832;2023-10-31T17:56:23;11.20;99.90
47114;DHT22;32867;51.556;6.832;2023-10-31T18:01:24;11.10;99.90
47114;DHT22;32867;51.556;6.832;2023-10-31T18:06:25;11.20;99.90
47114;DHT22;32867;51.556;6.832;2023-10-31T18:11:31;11.20;99.90
47114;DHT22;32867;51.556;6.832;2023-10-31T18:16:32;11.40;99.90
47114;DHT22;32867;51.556;6.832;2023-10-31T18:21:33;11.40;99.90
47114;DHT22;32867;51.556;6.832;2023-10-31T18:26:34;11.30;99.90
47114;DHT22;32867;51.556;6.832;2023-10-31T18:37:10;11.20;99.90
47114;DHT22;32867;51.556;6.832;2023-10-31T18:42:14;11.30;99.90
47114;DHT22;32867;51.556;6.832;2023-10-31T18:47:15;11.30;99.90
47114;DHT22;32867;51.556;6.832;2023-10-31T18:52:18;11.20;99.90
47114;DHT22;32867;51.556;6.832;2023-10-31T18:57:21;11.20;99.90
47114;DHT22;32867;51.556;6.832;2023-10-31T19:02:24;11.30;99.90
47114;DHT22;32867;51.556;6.832;2023-10-31T19:07:25;11.60;99.90
47114;DHT22;32867;51.556;6.832;2023-10-31T19:12:26;12.00;99.90
47114;DHT22;32867;51.556;6.832;2023-10-31T19:17:32;11.90;99.90
47114;DHT22;32867;51.556;6.832;2023-10-31T19:22:33;11.90;99.90
47114;DHT22;32867;51.556;6.832;2023-10-31T19:27:34;11.90;99.90
47114;DHT22;32867;51.556;6.832;2023-10-31T19:32:35;12.00;99.90
47114;DHT22;32867;51.556;6.832;2023-10-31T19:37:36;11.80;99.90
47114;DHT22;32867;51.556;6.832;2023-10-31T19:42:38;12.00;99.90
47114;DHT22;32867;51.556;6.832;2023-10-31T19:47:38;11.90;99.90
47114;DHT22;32867;51.556;6.832;2023-10-31T19:52:39;12.00;99.90
47114;DHT22;32867;51.556;6.832;2023-10-31T19:57:40;11.90;99.90
47114;DHT22;32867;51.556;6.832;2023-10-31T20:02:41;12.10;99.90
47114;DHT22;32867;51.556;6.832;2023-10-31T20:07:41;12.30;99.90
47114;DHT22;32867;51.556;6.832;2023-10-31T20:12:42;12.30;99.90
47114;DHT22;32867;51.556;6.832;2023-10-31T20:17:43;12.40;99.90
47114;DHT22;32867;51.556;6.832;2023-10-31T20:22:44;12.30;99.90
47114;DHT22;32867;51.556;6.832;2023-10-31T20:27:45;12.20;99.90
47114;DHT22;32867;51.556;6.832;2023-10-31T20:32:46;12.10;99.90
47114;DHT22;32867;51.556;6.832;2023-10-31T20:37:47;12.10;99.90
47114;DHT22;32867;51.556;6.832;2023-10-31T20:42:48;12.20;99.90
47114;DHT22;32867;51.556;6.832;2023-10-31T20:47:49;12.30;99.90
47114;DHT22;32867;51.556;6.832;2023-10-31T20:52:50;12.30;99.90
47114;DHT22;32867;51.556;6.832;2023-10-31T20:57:54;12.00;99.90
47114;DHT22;32867;51.556;6.832;2023-10-31T21:02:55;12.10;99.90
47114;DHT22;32867;51.556;6.832;2023-10-31T21:07:55;12.20;99.90
47114;DHT22;32867;51.556;6.832;2023-10-31T21:12:56;12.10;99.90
47114;DHT22;32867;51.556;6.832;2023-10-31T21:17:57;11.90;99.90
47114;DHT22;32867;51.556;6.832;2023-10-31T21:22:58;12.20;99.90
47114;DHT22;32867;51.556;6.832;2023-10-31T21:27:59;12.10;99.90
47114;DHT22;32867;51.556;6.832;2023-10-31T21:33:00;12.30;99.90
47114;DHT22;32867;51.556;6.832;2023-10-31T21:38:00;12.20;99.90
47114;DHT22;32867;51.556;6.832;2023-10-31T21:43:05;12.20;99.90
47114;DHT22;32867;51.556;6.832;2023-10-31T21:48:06;12.30;99.90
47114;DHT22;32867;51.556;6.832;2023-10-31T21:53:14;12.50;99.90
47114;DHT22;32867;51.556;6.832;2023-10-31T21:58:15;12.40;99.90
47114;DHT22;32867;51.556;6.832;2023-10-31T22:03:16;12.30;99.90
47114;DHT22;32867;51.556;6.832;2023-10-31T22:08:18;12.10;99.90
47114;DHT22;32867;51.556;6.832;2023-10-31T22:13:20;12.10;99.90
47114;DHT22;32867;51.556;6.832;2023-10-31T22:18:21;12.20;99.90
47114;DHT22;32867;51.556;6.832;2023-10-31T22:23:23;12.30;99.90
47114;DHT22;32867;51.556;6.832;2023-10-31T22:28:26;12.30;99.90
47114;DHT22;32867;51.556;6.832;2023-10-31T22:33:26;12.40;99.90
47114;DHT22;32867;51.556;6.832;2023-10-31T22:38:27;12.40;99.90
47114;DHT22;32867;51.556;6.832;2023-10-31T22:43:28;12.30;99.90
47114;DHT22;32867;51.556;6.832;2023-10-31T22:48:30;12.30;99.90
47114;DHT22;32867;51.556;6.832;2023-10-31T22:53:31;12.40;99.90
47114;DHT22;32867;51.556;6.832;2023-10-31T22:58:32;12.60;99.90
47114;DHT22;32867;51.556;6.832;2023-10-31T23:03:33;12.40;99.90
47114;DHT22;32867;51.556;6.832;2023-10-31T23:08:35;12.60;99.90
47114;DHT22;32867;51.556;6.832;2023-10-31T23:13:39;12.40;99.90
47114;DHT22;32867;51.556;6.832;2023-10-31T23:18:40;12.40;99.90
47114;DHT22;32867;51.556;6.832;2023-10-31T23:23:41;12.60;99.90
47114;DHT22;32867;51.556;6.832;2023-10-31T23:28:42;12.60;99.90
47114;DHT22;32867;51.556;6.832;2023-10-31T23:33:43;12.70;99.90
47114;DHT22;32867;51.556;6.832;2023-10-31T23:38:46;12.70;99.90
47114;DHT22;32867;51.556;6.832;2023-10-31T23:43:47;12.70;99.90
47114;DHT22;32867;51.556;6.832;2023-10-31T23:48:48;12.80;99.90
47114;DHT22;32867;51.556;6.832;2023-10-31T23:53:49;12.50;99.90
47114;DHT22;32867;51.556;6.832;2023-10-31T23:58:50;12.70;99.90
